Time;durP1;ratioP1;P1;durP2;ratioP2;P2;SDS_P1;SDS_P2;PMS_P1;PMS_P2;Temp;Humidity;BMP_temperature;BMP_pressure;BME280_temperature;BME280_humidity;BME280_pressure;Samples;Min_cycle;Max_cycle;Signal;HPM_P1;HPM_P2
2021/10/10 00:00:59;;;;;;;21.92;12.40;;;;;;;5.71;79.78;102430.56;5020350;28;20064;-81
2021/10/10 00:03:27;;;;;;;21.70;13.23;;;;;;;5.62;80.35;102438.50;5015358;28;20038;-79
2021/10/10 00:05:54;;;;;;;22.55;12.18;;;;;;;5.67;81.02;102426.25;5018669;28;20060;-80
2021/10/10 00:08:22;;;;;;;21.85;12.75;;;;;;;5.67;80.47;102433.22;5014587;28;20044;-82
2021/10/10 00:10:49;;;;;;;25.20;13.65;;;;;;;5.76;80.31;102422.69;5021027;28;20053;-84
2021/10/10 00:13:17;;;;;;;24.25;12.85;;;;;;;5.68;80.04;102433.25;5003864;28;20054;-83
2021/10/10 00:15:44;;;;;;;19.00;11.60;;;;;;;5.60;81.19;102424.59;5010455;28;20496;-81
2021/10/10 00:18:12;;;;;;;18.20;11.70;;;;;;;5.53;81.31;102429.00;5015684;28;20056;-81
2021/10/10 00:20:40;;;;;;;20.35;12.80;;;;;;;5.59;81.14;102423.75;5005823;28;20056;-80
2021/10/10 00:23:07;;;;;;;20.27;13.02;;;;;;;5.57;81.20;102409.81;5022907;28;20061;-81
2021/10/10 00:25:36;;;;;;;18.73;12.10;;;;;;;5.55;81.65;102406.34;5026152;28;20089;-82
2021/10/10 00:28:04;;;;;;;18.60;12.43;;;;;;;5.55;81.19;102414.19;5008535;28;20120;-81
2021/10/10 00:30:32;;;;;;;23.23;13.50;;;;;;;5.53;82.15;102409.84;5024577;28;20129;-80
2021/10/10 00:33:02;;;;;;;28.85;13.60;;;;;;;5.44;82.28;102404.72;5032466;28;20136;-79
2021/10/10 00:35:30;;;;;;;22.33;14.70;;;;;;;5.45;81.75;102401.22;5016014;28;20072;-78
2021/10/10 00:37:57;;;;;;;22.15;13.20;;;;;;;5.61;81.03;102400.19;5024351;28;20056;-79
2021/10/10 00:40:25;;;;;;;18.42;12.43;;;;;;;5.49;82.60;102408.16;5013937;28;20489;-85
2021/10/10 00:42:52;;;;;;;24.23;12.93;;;;;;;5.42;82.69;102399.50;5026278;28;20045;-79
2021/10/10 00:45:19;;;;;;;22.23;13.70;;;;;;;5.36;82.63;102409.13;5014698;28;20054;-81
2021/10/10 00:47:49;;;;;;;20.70;14.45;;;;;;;5.33;82.90;102402.22;5022580;28;20063;-80
2021/10/10 00:50:16;;;;;;;21.40;13.75;;;;;;;5.26;83.68;102396.16;5013875;28;20036;-84
2021/10/10 00:52:44;;;;;;;23.67;13.27;;;;;;;5.36;83.17;102403.91;5009208;28;20479;-78
2021/10/10 00:55:12;;;;;;;20.77;13.93;;;;;;;5.24;83.69;102400.53;5013173;28;20072;-80
2021/10/10 00:57:44;;;;;;;25.15;14.10;;;;;;;5.27;83.82;102404.88;5023418;28;20064;-81
2021/10/10 01:00:12;;;;;;;24.27;13.73;;;;;;;5.30;83.52;102392.66;5014678;28;20058;-82
2021/10/10 01:02:41;;;;;;;22.63;14.65;;;;;;;5.22;83.56;102397.09;5022022;28;20064;-80
2021/10/10 01:05:08;;;;;;;24.55;14.98;;;;;;;5.18;84.17;102391.88;5009327;28;20519;-81
2021/10/10 01:07:35;;;;;;;25.42;15.13;;;;;;;5.14;84.27;102395.41;5006072;28;20081;-79
2021/10/10 01:10:07;;;;;;;23.23;14.43;;;;;;;5.07;84.37;102384.16;5016516;28;20349;-79
2021/10/10 01:12:35;;;;;;;20.73;14.32;;;;;;;5.20;84.41;102384.91;4999481;28;20581;-80
2021/10/10 01:15:03;;;;;;;23.17;13.95;;;;;;;5.19;84.18;102383.19;5016641;28;20140;-81
2021/10/10 01:17:31;;;;;;;23.55;14.00;;;;;;;5.06;84.72;102379.81;5017688;28;20046;-80
2021/10/10 01:19:59;;;;;;;25.50;15.05;;;;;;;5.00;85.07;102383.34;5012815;28;20060;-82
2021/10/10 01:22:29;;;;;;;23.70;14.52;;;;;;;5.06;85.28;102380.66;5021783;28;20049;-81
2021/10/10 01:24:57;;;;;;;27.27;14.80;;;;;;;4.94;85.57;102377.28;4999352;28;20053;-79
2021/10/10 01:27:24;;;;;;;22.35;14.65;;;;;;;4.94;86.31;102378.16;5017722;28;20103;-80
2021/10/10 01:29:51;;;;;;;24.58;15.63;;;;;;;4.91;85.86;102380.81;5015828;28;20050;-78
2021/10/10 01:32:19;;;;;;;21.55;14.50;;;;;;;4.90;86.16;102381.66;5021241;28;20053;-81
2021/10/10 01:34:47;;;;;;;21.88;14.10;;;;;;;4.85;86.42;102372.13;5017242;28;20048;-81
2021/10/10 01:37:16;;;;;;;23.30;15.25;;;;;;;4.68;87.51;102374.84;5016424;28;20509;-82
2021/10/10 01:39:43;;;;;;;27.08;15.13;;;;;;;4.60;87.79;102369.69;5003375;28;20056;-81
2021/10/10 01:42:11;;;;;;;27.40;15.57;;;;;;;4.47;88.60;102368.03;5020940;28;20060;-79
2021/10/10 01:44:38;;;;;;;27.92;17.50;;;;;;;4.50;88.52;102371.50;5015677;28;20049;-79
2021/10/10 01:47:05;;;;;;;22.00;14.68;;;;;;;4.63;88.39;102361.84;5019113;28;20054;-80
2021/10/10 01:49:38;;;;;;;24.90;15.20;;;;;;;4.62;87.49;102365.31;5008647;28;20050;-80
2021/10/10 01:52:08;;;;;;;25.17;15.38;;;;;;;4.65;88.04;102362.72;5022837;28;20508;-79
2021/10/10 01:54:36;;;;;;;24.58;16.20;;;;;;;4.73;87.51;102357.44;5012323;28;20029;-81
2021/10/10 01:57:03;;;;;;;26.95;16.33;;;;;;;4.78;87.54;102359.13;4992864;28;20072;-81
2021/10/10 01:59:31;;;;;;;24.83;15.00;;;;;;;4.68;88.00;102348.75;4999636;28;20053;-80
2021/10/10 02:01:58;;;;;;;23.90;14.90;;;;;;;4.65;88.57;102357.50;4998891;28;20064;-81
2021/10/10 02:04:26;;;;;;;22.83;15.93;;;;;;;4.62;88.10;102351.41;5010269;28;20061;-81
2021/10/10 02:06:53;;;;;;;24.48;16.15;;;;;;;4.63;88.61;102351.41;5021244;28;20416;-83
2021/10/10 02:09:21;;;;;;;24.25;16.17;;;;;;;4.61;88.46;102347.94;5015065;28;20053;-80
2021/10/10 02:11:48;;;;;;;25.33;16.23;;;;;;;4.54;88.86;102348.84;4985246;28;20058;-78
2021/10/10 02:14:15;;;;;;;24.55;15.85;;;;;;;4.49;88.70;102342.81;5011205;28;20050;-83
2021/10/10 02:16:47;;;;;;;25.92;16.02;;;;;;;4.50;88.74;102344.53;5002809;28;20135;-79
2021/10/10 02:19:14;;;;;;;23.92;16.38;;;;;;;4.63;88.52;102347.94;4996288;28;20488;-83
2021/10/10 02:21:41;;;;;;;27.98;17.23;;;;;;;4.62;88.31;102347.06;5020778;28;20097;-80
2021/10/10 02:24:09;;;;;;;30.90;17.65;;;;;;;4.71;87.97;102341.78;5018995;28;20486;-83
2021/10/10 02:26:37;;;;;;;31.42;17.90;;;;;;;4.68;88.69;102336.59;5014639;28;20069;-80
2021/10/10 02:29:05;;;;;;;26.90;17.60;;;;;;;4.70;88.27;102334.84;5012335;28;20071;-84
2021/10/10 02:31:32;;;;;;;28.10;16.85;;;;;;;4.67;88.26;102336.59;5000111;28;20045;-81
2021/10/10 02:33:59;;;;;;;22.90;16.20;;;;;;;4.57;89.11;102341.03;5018821;28;20124;-82
2021/10/10 02:36:28;;;;;;;29.77;16.95;;;;;;;4.58;88.81;102333.19;5014667;28;20407;-78
2021/10/10 02:38:55;;;;;;;27.17;17.15;;;;;;;4.46;89.63;102335.88;5003670;28;20061;-81
2021/10/10 02:41:23;;;;;;;26.55;17.08;;;;;;;4.42;90.28;102330.69;5019002;28;20046;-81
2021/10/10 02:43:51;;;;;;;28.10;17.55;;;;;;;4.42;89.73;102333.31;5016923;28;20112;-82
2021/10/10 02:46:18;;;;;;;30.95;17.50;;;;;;;4.48;89.44;102331.50;5015597;28;20046;-78
2021/10/10 02:48:46;;;;;;;28.23;18.42;;;;;;;4.30;90.43;102326.41;5007736;28;20636;-79
2021/10/10 02:51:13;;;;;;;25.48;16.73;;;;;;;4.29;90.24;102335.97;5015408;28;20220;-77
2021/10/10 02:53:40;;;;;;;27.23;18.10;;;;;;;4.21;90.78;102329.94;5012146;28;20060;-79
2021/10/10 02:56:08;;;;;;;31.10;18.48;;;;;;;4.27;90.39;102329.88;5012028;28;20042;-80
2021/10/10 02:58:35;;;;;;;29.98;18.67;;;;;;;4.26;90.08;102330.78;5019364;28;20153;-80
2021/10/10 03:01:03;;;;;;;30.92;18.05;;;;;;;4.36;89.65;102328.97;5019178;28;21235;-80
2021/10/10 03:03:30;;;;;;;31.05;17.52;;;;;;;4.35;90.11;102327.25;5015016;28;20052;-78
2021/10/10 03:05:57;;;;;;;28.10;18.08;;;;;;;4.31;90.98;102328.13;5006570;28;20063;-79
2021/10/10 03:08:25;;;;;;;27.95;18.05;;;;;;;4.40;90.07;102327.22;5017792;28;21579;-81
2021/10/10 03:10:52;;;;;;;30.50;17.25;;;;;;;4.22;90.82;102323.84;5002030;28;20052;-78
2021/10/10 03:13:20;;;;;;;30.77;17.63;;;;;;;4.30;92.12;102324.66;5014566;28;20521;-78
2021/10/10 03:15:47;;;;;;;28.23;17.08;;;;;;;4.43;90.36;102322.84;5003596;28;20095;-79
2021/10/10 03:18:15;;;;;;;33.47;18.00;;;;;;;4.46;91.09;102316.75;4994925;28;20046;-83
2021/10/10 03:20:42;;;;;;;31.27;18.00;;;;;;;4.32;90.99;102309.91;5009937;28;20046;-81
2021/10/10 03:23:09;;;;;;;28.83;18.80;;;;;;;4.20;91.91;102312.56;5016955;28;20054;-79
2021/10/10 03:25:37;;;;;;;28.95;18.58;;;;;;;4.11;92.30;102309.16;5008064;28;20400;-79
2021/10/10 03:28:04;;;;;;;26.27;17.08;;;;;;;4.06;92.94;102310.03;5015081;28;20056;-83
2021/10/10 03:30:32;;;;;;;28.55;18.35;;;;;;;4.09;91.54;102305.66;5001748;28;20053;-80
2021/10/10 03:33:00;;;;;;;34.38;20.50;;;;;;;4.14;92.38;102303.91;5023719;28;20053;-83
2021/10/10 03:35:28;;;;;;;28.98;18.55;;;;;;;4.03;91.82;102310.03;5015125;28;20481;-84
2021/10/10 03:37:55;;;;;;;33.97;19.17;;;;;;;3.93;92.65;102305.75;5020716;28;20050;-77
2021/10/10 03:40:23;;;;;;;28.17;18.48;;;;;;;3.92;92.98;102303.16;5016105;28;20058;-79
2021/10/10 03:42:50;;;;;;;29.75;19.08;;;;;;;3.98;92.79;102303.13;5003260;28;20147;-78
2021/10/10 03:45:18;;;;;;;34.15;19.52;;;;;;;3.91;92.79;102299.66;5014004;28;20054;-81
2021/10/10 03:47:45;;;;;;;27.50;18.02;;;;;;;3.91;93.12;102291.84;5025982;28;20046;-79
2021/10/10 03:50:13;;;;;;;35.90;19.70;;;;;;;4.01;92.14;102301.38;5014542;28;20049;-80
2021/10/10 03:52:41;;;;;;;30.67;19.17;;;;;;;3.92;92.74;102297.94;5026023;28;20053;-79
2021/10/10 03:57:58;;;;;;;31.48;19.30;;;;;;;3.93;93.10;102289.25;5023333;28;20053;-79
2021/10/10 04:00:26;;;;;;;33.13;19.55;;;;;;;3.91;93.41;102286.63;5016173;28;20065;-81
2021/10/10 04:02:54;;;;;;;30.73;18.98;;;;;;;3.86;93.74;102283.19;5018284;28;20049;-80
2021/10/10 04:07:58;;;;;;;31.95;19.95;;;;;;;4.03;92.60;102294.41;5016188;28;20500;-80
2021/10/10 04:10:26;;;;;;;36.03;20.42;;;;;;;4.03;92.98;102291.78;5009692;28;20061;-81
2021/10/10 04:12:54;;;;;;;32.80;20.05;;;;;;;3.99;92.40;102292.69;5017285;28;20512;-80
2021/10/10 04:15:22;;;;;;;33.45;20.38;;;;;;;3.96;92.24;102290.13;5000660;28;20615;-81
2021/10/10 04:17:50;;;;;;;27.25;18.27;;;;;;;3.83;93.67;102288.44;4997271;28;20046;-82
2021/10/10 04:20:18;;;;;;;36.25;21.55;;;;;;;3.75;94.09;102285.84;5013535;28;20052;-80
2021/10/10 04:22:46;;;;;;;27.08;18.58;;;;;;;3.71;95.10;102294.56;5018576;28;20054;-78
2021/10/10 04:25:14;;;;;;;36.05;20.23;;;;;;;3.75;94.21;102290.19;5015666;28;20037;-81
2021/10/10 04:27:41;;;;;;;30.77;19.38;;;;;;;3.72;94.47;102285.00;5014261;28;20042;-80
2021/10/10 04:30:12;;;;;;;32.20;20.20;;;;;;;3.67;94.80;102289.34;4998505;28;20046;-81
2021/10/10 04:32:41;;;;;;;27.95;20.15;;;;;;;3.54;96.00;102293.72;5019276;28;20079;-80
2021/10/10 04:35:09;;;;;;;36.25;20.58;;;;;;;3.57;96.18;102288.53;5013764;28;20050;-81
2021/10/10 04:37:37;;;;;;;31.35;18.92;;;;;;;3.39;95.95;102289.44;5005967;28;20049;-84
2021/10/10 04:40:05;;;;;;;31.77;19.58;;;;;;;3.39;96.54;102289.44;5012593;28;20046;-80
2021/10/10 04:42:34;;;;;;;29.88;20.05;;;;;;;3.38;96.76;102292.03;5000239;28;20053;-78
2021/10/10 04:45:02;;;;;;;40.53;21.13;;;;;;;3.48;96.25;102291.16;4991516;28;20064;-78
2021/10/10 04:47:29;;;;;;;29.83;19.63;;;;;;;3.46;96.39;102291.16;5015551;28;20038;-81
2021/10/10 04:49:58;;;;;;;35.67;21.80;;;;;;;3.34;96.65;102285.13;5009670;28;20064;-82
2021/10/10 04:52:26;;;;;;;34.90;20.30;;;;;;;3.42;96.05;102288.56;5010731;28;20404;-80
2021/10/10 04:54:53;;;;;;;31.75;20.10;;;;;;;3.37;97.33;102285.09;5004092;28;20064;-80
2021/10/10 04:57:21;;;;;;;34.80;19.08;;;;;;;3.36;97.58;102286.84;5021848;28;20058;-79
2021/10/10 04:59:49;;;;;;;30.13;19.05;;;;;;;3.37;97.37;102283.34;5016459;28;20060;-80
2021/10/10 05:02:19;;;;;;;32.45;21.35;;;;;;;3.36;97.03;102284.25;5021712;28;20515;-81
2021/10/10 05:04:49;;;;;;;31.70;19.52;;;;;;;3.29;97.40;102280.78;5017436;28;20057;-80
2021/10/10 05:07:20;;;;;;;31.48;20.40;;;;;;;3.32;97.74;102272.09;5006828;28;20053;-80
2021/10/10 05:09:47;;;;;;;36.25;21.83;;;;;;;3.19;98.11;102276.47;5014271;28;20323;-82
2021/10/10 05:12:15;;;;;;;36.13;21.83;;;;;;;3.24;98.09;102276.44;4999854;28;20052;-82
2021/10/10 05:14:43;;;;;;;31.33;19.33;;;;;;;3.22;98.26;102278.19;4997753;28;20430;-80
2021/10/10 05:17:10;;;;;;;33.13;21.35;;;;;;;3.05;98.80;102275.63;5007983;28;20289;-81
2021/10/10 05:19:38;;;;;;;34.83;20.58;;;;;;;3.11;98.69;102274.75;5013700;28;20064;-82
2021/10/10 05:22:05;;;;;;;35.78;21.75;;;;;;;3.11;98.47;102273.03;5014641;28;20053;-82
2021/10/10 05:24:33;;;;;;;41.10;21.95;;;;;;;3.07;99.03;102273.91;5011366;28;20071;-81
2021/10/10 05:27:01;;;;;;;34.40;20.67;;;;;;;2.99;99.41;102276.50;5016340;28;20306;-82
2021/10/10 05:29:29;;;;;;;33.33;21.98;;;;;;;2.91;100.00;102275.63;5011431;28;20050;-81
2021/10/10 05:31:57;;;;;;;32.33;21.60;;;;;;;2.94;100.00;102274.78;4999456;28;20046;-83
2021/10/10 05:34:24;;;;;;;39.00;22.40;;;;;;;2.99;99.92;102271.31;5004016;28;20053;-78
2021/10/10 05:36:54;;;;;;;37.83;23.08;;;;;;;3.08;99.21;102269.56;4983743;28;20393;-81
2021/10/10 05:39:22;;;;;;;40.20;22.33;;;;;;;3.03;98.67;102269.56;5000906;28;20357;-80
2021/10/10 05:41:49;;;;;;;35.55;22.00;;;;;;;3.05;99.30;102276.47;5014765;28;20053;-82
2021/10/10 05:44:17;;;;;;;37.83;22.20;;;;;;;3.14;99.06;102273.00;5008534;28;20148;-80
2021/10/10 05:46:44;;;;;;;37.38;22.98;;;;;;;3.19;98.27;102276.47;5036875;28;20088;-83
2021/10/10 05:49:11;;;;;;;35.65;21.23;;;;;;;3.07;99.21;102283.44;5038625;28;20049;-82
2021/10/10 05:51:39;;;;;;;32.10;20.17;;;;;;;3.24;99.00;102281.66;5035008;28;20465;-82
2021/10/10 05:54:09;;;;;;;38.90;23.25;;;;;;;3.17;98.94;102273.00;5021825;28;20454;-85
2021/10/10 05:56:38;;;;;;;38.80;21.73;;;;;;;3.26;98.16;102279.94;5039338;28;20113;-81
2021/10/10 05:59:10;;;;;;;38.78;21.45;;;;;;;3.23;98.01;102277.31;5029492;28;20109;-84
2021/10/10 06:01:39;;;;;;;37.13;22.52;;;;;;;3.31;98.39;102280.78;5043005;28;20105;-80
2021/10/10 06:04:07;;;;;;;37.45;22.35;;;;;;;3.30;97.93;102282.53;5007637;28;20480;-84
2021/10/10 06:06:34;;;;;;;38.05;22.38;;;;;;;3.21;98.54;102274.75;5004235;28;20055;-80
2021/10/10 06:09:05;;;;;;;31.00;20.58;;;;;;;3.27;98.35;102281.66;5021635;28;20059;-80
2021/10/10 06:11:34;;;;;;;36.92;21.25;;;;;;;3.28;99.22;102278.19;5011758;28;20042;-83
2021/10/10 06:14:02;;;;;;;39.22;21.42;;;;;;;3.51;97.37;102280.72;5017149;28;20391;-84
2021/10/10 06:16:31;;;;;;;35.00;22.20;;;;;;;3.57;96.94;102277.25;5000501;28;20051;-82
2021/10/10 06:18:59;;;;;;;32.58;21.13;;;;;;;3.51;97.03;102281.63;5006041;28;20051;-83
2021/10/10 06:21:27;;;;;;;34.03;22.88;;;;;;;3.64;96.90;102284.16;4998947;28;20497;-80
2021/10/10 06:23:54;;;;;;;35.63;22.08;;;;;;;3.80;95.76;102285.84;5006467;28;20056;-78
2021/10/10 06:26:22;;;;;;;35.15;21.92;;;;;;;3.86;95.36;102283.19;5018416;28;20082;-79
2021/10/10 06:28:50;;;;;;;37.42;22.55;;;;;;;3.99;93.65;102284.88;5035462;28;20063;-80
2021/10/10 06:31:17;;;;;;;37.72;22.45;;;;;;;4.06;93.72;102278.75;5037133;28;20407;-80
2021/10/10 06:33:45;;;;;;;37.40;23.88;;;;;;;4.07;92.87;102280.47;5006347;28;20045;-79
2021/10/10 06:36:14;;;;;;;40.50;22.75;;;;;;;4.12;92.63;102277.00;5018672;28;20049;-81
2021/10/10 06:38:41;;;;;;;34.50;21.15;;;;;;;4.23;92.96;102283.88;5017401;28;20073;-79
2021/10/10 06:41:09;;;;;;;34.38;21.75;;;;;;;4.57;90.96;102271.47;5020322;28;20520;-80
2021/10/10 06:43:36;;;;;;;33.72;20.75;;;;;;;5.36;87.63;102281.16;5035933;28;20072;-79
2021/10/10 06:46:03;;;;;;;33.22;20.63;;;;;;;5.13;86.38;102270.97;5038401;28;20041;-79
2021/10/10 06:48:31;;;;;;;34.35;21.33;;;;;;;5.09;87.07;102275.38;5037049;28;20048;-78
2021/10/10 06:50:58;;;;;;;36.08;21.85;;;;;;;5.16;86.79;102278.78;5006019;28;20071;-83
2021/10/10 06:53:27;;;;;;;38.92;21.60;;;;;;;5.21;86.82;102283.06;5023260;28;20045;-80
2021/10/10 06:55:54;;;;;;;32.45;22.15;;;;;;;5.31;85.55;102283.81;5016380;28;20440;-78
2021/10/10 06:58:22;;;;;;;36.08;21.65;;;;;;;5.45;84.45;102286.28;5034916;28;20045;-80
2021/10/10 07:00:49;;;;;;;36.03;20.85;;;;;;;6.06;81.68;102286.44;5020075;28;20400;-81
2021/10/10 07:03:17;;;;;;;34.80;20.25;;;;;;;6.58;78.23;102284.84;5037868;28;20083;-81
2021/10/10 07:05:44;;;;;;;38.60;21.85;;;;;;;6.32;79.37;102282.59;5021651;28;20042;-80
2021/10/10 07:08:12;;;;;;;34.55;21.40;;;;;;;6.18;79.53;102284.56;5021599;28;20377;-78
2021/10/10 07:10:39;;;;;;;33.13;20.13;;;;;;;6.77;77.13;102285.41;5035438;28;20054;-81
2021/10/10 07:13:06;;;;;;;42.47;21.25;;;;;;;7.33;73.18;102281.75;5034126;28;20130;-79
2021/10/10 07:15:34;;;;;;;34.72;20.58;;;;;;;7.01;74.33;102282.34;5001130;28;20057;-82
2021/10/10 07:18:03;;;;;;;33.58;20.48;;;;;;;7.09;74.57;102284.84;5018712;28;20045;-81
2021/10/10 07:26:13;;;;;;;;;;;;;;;13.52;51.35;102283.28;4966386;28;20047;-81
2021/10/10 07:28:40;;;;;;;26.90;17.80;;;;;;;15.72;45.17;102276.84;5011575;28;20387;-77
2021/10/10 07:31:08;;;;;;;27.88;17.17;;;;;;;16.86;41.23;102270.34;4999324;28;20059;-83
2021/10/10 07:33:35;;;;;;;26.85;16.13;;;;;;;17.47;39.05;102276.41;5016578;28;20087;-82
2021/10/10 07:36:03;;;;;;;24.70;16.88;;;;;;;16.97;39.41;102275.03;5001040;28;20053;-78
2021/10/10 07:38:30;;;;;;;26.98;17.77;;;;;;;18.04;38.02;102270.22;5031401;28;20053;-81
2021/10/10 07:41:03;;;;;;;26.83;17.40;;;;;;;18.77;36.16;102273.41;5005102;28;20404;-79
2021/10/10 07:43:31;;;;;;;25.42;16.98;;;;;;;18.98;35.28;102263.09;4986460;28;20055;-78
2021/10/10 07:46:06;;;;;;;23.35;16.75;;;;;;;19.09;34.91;102268.56;5003231;28;20057;-79
2021/10/10 07:48:34;;;;;;;25.80;16.20;;;;;;;19.20;33.98;102282.03;4991845;28;20041;-80
2021/10/10 07:51:02;;;;;;;23.77;16.67;;;;;;;17.03;37.88;102280.00;5028113;28;20063;-79
2021/10/10 07:53:29;;;;;;;28.45;18.88;;;;;;;16.97;37.88;102280.34;5006632;28;20068;-83
2021/10/10 07:55:57;;;;;;;24.73;17.15;;;;;;;16.87;37.99;102279.19;4979430;28;20542;-81
2021/10/10 07:58:24;;;;;;;27.10;17.05;;;;;;;17.14;38.31;102276.69;5038898;28;20045;-80
2021/10/10 08:00:54;;;;;;;23.90;17.35;;;;;;;18.53;36.43;102280.38;5010956;28;20519;-81
2021/10/10 08:03:22;;;;;;;25.42;18.02;;;;;;;18.33;35.85;102279.03;5036030;28;20409;-82
2021/10/10 08:05:50;;;;;;;25.42;17.27;;;;;;;18.82;35.24;102273.97;5020722;28;20053;-79
2021/10/10 08:08:17;;;;;;;30.45;17.92;;;;;;;19.94;33.74;102275.00;5024073;28;20067;-81
2021/10/10 08:10:45;;;;;;;25.45;17.33;;;;;;;17.86;36.21;102267.78;5002756;28;20033;-81
2021/10/10 08:13:12;;;;;;;26.52;17.05;;;;;;;19.60;33.61;102271.25;5042618;28;20045;-82
2021/10/10 08:15:39;;;;;;;24.70;17.52;;;;;;;19.40;33.41;102271.75;4992401;28;20049;-81
2021/10/10 08:18:07;;;;;;;23.08;16.30;;;;;;;19.53;33.59;102269.94;5024016;28;20057;-85
2021/10/10 08:20:36;;;;;;;24.83;17.13;;;;;;;18.36;35.58;102268.97;5002044;28;20060;-82
2021/10/10 08:23:03;;;;;;;23.92;17.30;;;;;;;18.54;34.86;102266.91;5026807;28;20065;-82
2021/10/10 08:25:32;;;;;;;24.90;16.90;;;;;;;19.60;33.61;102265.91;5037267;28;20060;-80
2021/10/10 08:28:00;;;;;;;22.30;16.15;;;;;;;19.80;33.03;102268.97;5026163;28;20053;-83
2021/10/10 08:30:27;;;;;;;23.77;14.35;;;;;;;20.20;31.74;102262.44;5019608;28;20396;-79
2021/10/10 08:32:54;;;;;;;24.15;15.77;;;;;;;19.82;32.19;102254.53;5022402;28;20045;-80
2021/10/10 08:35:22;;;;;;;20.05;14.25;;;;;;;20.91;30.13;102249.97;5022107;28;20053;-82
2021/10/10 08:37:49;;;;;;;25.92;16.08;;;;;;;21.60;29.53;102246.41;4999307;28;20072;-83
2021/10/10 08:40:17;;;;;;;22.55;14.98;;;;;;;21.86;29.09;102253.22;5004256;28;20060;-80
2021/10/10 08:42:47;;;;;;;21.98;15.02;;;;;;;21.63;29.40;102249.72;5021052;28;20117;-81
2021/10/10 08:47:44;;;;;;;23.17;15.30;;;;;;;20.74;30.44;102243.22;5026620;28;20045;-81
2021/10/10 08:50:17;;;;;;;23.13;15.52;;;;;;;21.97;28.64;102246.97;5019248;28;20064;-83
2021/10/10 08:52:46;;;;;;;24.40;14.60;;;;;;;21.44;29.48;102241.44;5020852;28;20134;-81
2021/10/10 08:55:14;;;;;;;22.40;14.80;;;;;;;21.51;29.45;102239.13;5019316;28;20063;-82
2021/10/10 08:57:43;;;;;;;21.65;14.32;;;;;;;20.31;30.43;102239.38;5009286;28;20048;-80
2021/10/10 09:00:16;;;;;;;16.38;13.20;;;;;;;20.88;29.81;102236.81;5024764;28;20057;-81
2021/10/10 09:02:47;;;;;;;20.95;14.32;;;;;;;21.32;29.05;102239.72;5023910;28;20043;-78
2021/10/10 09:05:15;;;;;;;23.25;14.30;;;;;;;21.51;28.79;102239.13;5021070;28;20053;-81
2021/10/10 09:07:44;;;;;;;19.85;13.25;;;;;;;20.26;29.92;102237.03;5008228;28;20494;-83
2021/10/10 09:10:29;;;;;;;20.13;12.35;;;;;;;19.56;30.90;102242.16;5006619;28;20396;-79
2021/10/10 09:13:13;;;;;;;21.50;14.18;;;;;;;20.11;31.07;102235.50;5020370;28;20129;-79
2021/10/10 09:15:50;;;;;;;20.50;13.55;;;;;;;20.34;30.72;102231.13;5006043;28;20050;-78
2021/10/10 09:18:17;;;;;;;19.13;12.00;;;;;;;18.94;31.84;102233.09;5035090;28;20102;-84
2021/10/10 09:20:47;;;;;;;17.58;12.10;;;;;;;17.45;34.45;102225.94;5019267;28;20059;-82
2021/10/10 09:23:17;;;;;;;22.45;12.27;;;;;;;16.09;35.99;102228.72;5025873;28;20047;-80
2021/10/10 09:25:58;;;;;;;17.55;12.05;;;;;;;14.56;39.13;102234.19;5040058;28;20060;-83
2021/10/10 09:28:27;;;;;;;24.23;12.07;;;;;;;13.56;41.59;102232.78;5040773;28;20120;-82
2021/10/10 09:31:00;;;;;;;24.65;12.85;;;;;;;12.86;43.14;102226.16;5025029;28;20049;-81
2021/10/10 09:33:58;;;;;;;19.17;11.38;;;;;;;12.25;46.02;102227.84;5031704;28;20097;-81
2021/10/10 09:36:28;;;;;;;23.42;12.23;;;;;;;12.19;46.75;102226.31;5007264;28;20116;-77
2021/10/10 09:39:03;;;;;;;20.30;12.18;;;;;;;11.75;46.86;102236.81;5028395;28;20131;-78
2021/10/10 09:41:36;;;;;;;17.92;10.77;;;;;;;11.59;46.76;102228.59;5006721;28;20033;-79
2021/10/10 09:47:05;;;;;;;16.75;11.13;;;;;;;11.43;47.82;102221.31;5018806;28;20049;-77
2021/10/10 09:49:34;;;;;;;23.70;11.48;;;;;;;11.39;48.38;102217.94;5015973;28;20060;-79
2021/10/10 09:52:08;;;;;;;20.88;10.15;;;;;;;11.56;47.96;102220.81;5004641;28;20041;-79
2021/10/10 09:54:49;;;;;;;16.15;10.07;;;;;;;11.52;47.56;102216.56;5031263;28;20063;-78
2021/10/10 09:57:17;;;;;;;19.88;9.75;;;;;;;11.50;46.43;102221.03;5017553;28;20055;-80
2021/10/10 09:59:45;;;;;;;14.77;10.13;;;;;;;11.58;47.12;102215.50;5020138;28;20049;-80
2021/10/10 10:02:13;;;;;;;21.13;10.48;;;;;;;11.65;46.94;102216.97;5014968;28;20059;-82
2021/10/10 10:04:44;;;;;;;20.63;10.05;;;;;;;11.55;47.46;102211.19;5013864;28;20044;-80
2021/10/10 10:07:17;;;;;;;20.40;9.57;;;;;;;11.56;46.41;102207.59;5010460;28;20063;-79
2021/10/10 10:09:50;;;;;;;16.67;9.45;;;;;;;11.61;47.16;102212.72;5017463;28;20053;-79
2021/10/10 10:12:21;;;;;;;18.90;9.98;;;;;;;11.55;47.26;102210.31;5036889;28;20053;-77
2021/10/10 10:14:51;;;;;;;14.85;9.50;;;;;;;11.69;48.35;102207.16;4997396;28;20067;-78
2021/10/10 10:17:23;;;;;;;16.10;9.13;;;;;;;11.78;47.42;102202.38;5003705;28;20059;-80
2021/10/10 10:19:51;;;;;;;16.63;9.27;;;;;;;11.75;47.17;102196.34;5016993;28;20053;-80
2021/10/10 10:22:20;;;;;;;14.35;8.43;;;;;;;11.80;46.68;102200.56;5022843;28;20053;-79
2021/10/10 10:24:47;;;;;;;17.27;9.88;;;;;;;11.86;46.02;102207.41;5036738;28;20033;-82
2021/10/10 10:27:16;;;;;;;15.32;8.57;;;;;;;11.84;45.54;102202.19;5002848;28;20132;-80
2021/10/10 10:29:46;;;;;;;15.93;7.45;;;;;;;11.85;43.89;102206.53;5009472;28;20057;-79
2021/10/10 10:32:15;;;;;;;16.55;8.25;;;;;;;11.83;44.15;102196.94;5022770;28;20044;-81
2021/10/10 10:35:03;;;;;;;12.80;7.32;;;;;;;11.83;43.83;102199.59;5000622;28;20044;-78
2021/10/10 10:37:47;;;;;;;19.38;7.85;;;;;;;11.94;44.32;102197.41;5003572;28;20495;-81
2021/10/10 10:40:14;;;;;;;12.20;7.38;;;;;;;11.93;43.18;102197.44;5028570;28;20049;-79
2021/10/10 10:42:46;;;;;;;15.93;7.95;;;;;;;11.80;43.34;102197.06;5034350;28;20059;-81
2021/10/10 10:45:39;;;;;;;14.57;8.25;;;;;;;11.74;44.21;102192.84;4999519;28;20068;-81
2021/10/10 10:48:28;;;;;;;16.40;7.45;;;;;;;11.90;44.12;102188.75;5015814;28;20060;-85
2021/10/10 10:51:23;;;;;;;15.50;7.43;;;;;;;12.07;43.63;102179.31;5017823;28;20403;-81
2021/10/10 10:53:51;;;;;;;18.60;7.82;;;;;;;12.11;44.07;102184.41;5014355;28;20045;-84
2021/10/10 10:56:26;;;;;;;24.27;10.38;;;;;;;12.17;45.05;102185.94;5019180;28;20097;-79
2021/10/10 10:58:58;;;;;;;31.85;11.90;;;;;;;12.27;45.28;102174.06;5039085;28;20049;-81
2021/10/10 11:01:27;;;;;;;15.55;8.80;;;;;;;12.20;44.85;102174.38;5031812;28;20044;-80
2021/10/10 11:04:24;;;;;;;17.17;7.95;;;;;;;12.27;43.92;102175.84;5002302;28;20057;-79
2021/10/10 11:06:54;;;;;;;14.88;7.65;;;;;;;12.16;43.90;102171.00;5022659;28;20501;-85
2021/10/10 11:09:25;;;;;;;14.48;8.35;;;;;;;12.23;43.85;102171.59;5036174;28;21232;-80
2021/10/10 11:11:55;;;;;;;23.33;9.10;;;;;;;12.32;44.04;102172.09;5018020;28;20061;-83
2021/10/10 11:14:27;;;;;;;19.45;9.00;;;;;;;12.17;44.66;102170.09;5009575;28;20053;-80
2021/10/10 11:17:05;;;;;;;14.85;7.72;;;;;;;12.34;44.43;102164.13;5014092;28;20515;-81
2021/10/10 11:19:33;;;;;;;12.50;7.43;;;;;;;12.46;44.27;102162.72;4995588;28;20049;-81
2021/10/10 11:22:00;;;;;;;12.18;8.05;;;;;;;12.49;43.57;102162.59;5037995;28;20515;-80
2021/10/10 11:24:28;;;;;;;10.35;6.80;;;;;;;12.51;43.32;102155.47;5020221;28;20614;-82
2021/10/10 11:26:58;;;;;;;14.45;8.23;;;;;;;12.37;44.23;102153.41;5032529;28;20059;-81
2021/10/10 11:29:27;;;;;;;16.15;7.50;;;;;;;12.53;44.78;102156.28;5027473;28;20334;-80
2021/10/10 11:31:56;;;;;;;13.07;7.30;;;;;;;12.57;43.55;102147.28;5031639;28;20065;-81
2021/10/10 11:34:24;;;;;;;14.57;7.50;;;;;;;12.63;43.30;102139.94;5022129;28;20404;-79
2021/10/10 11:36:54;;;;;;;13.68;6.63;;;;;;;12.53;40.75;102138.63;5022487;28;20063;-82
2021/10/10 11:39:29;;;;;;;11.63;6.72;;;;;;;12.58;40.69;102133.16;5017145;28;20052;-81